Time;durP1;ratioP1;P1;durP2;ratioP2;P2;SDS_P1;SDS_P2;PMS_P1;PMS_P2;Temp;Humidity;BMP_temperature;BMP_pressure;BME280_temperature;BME280_humidity;BME280_pressure;Samples;Min_cycle;Max_cycle;Signal;HPM_P1;HPM_P2
2022/09/10 00:01:24;;;;;;;12.80;9.25;;;;;;;20.40;100.00;93104.66;5082254;28;20045;-74
2022/09/10 00:03:53;;;;;;;9.90;8.10;;;;;;;20.38;100.00;93108.59;5073664;28;20415;-74
2022/09/10 00:06:23;;;;;;;11.25;8.43;;;;;;;20.31;100.00;93101.06;5070783;28;20045;-74
2022/09/10 00:08:50;;;;;;;12.57;8.75;;;;;;;20.34;100.00;93107.56;5069461;28;20052;-74
2022/09/10 00:11:19;;;;;;;13.90;8.57;;;;;;;20.34;100.00;93108.38;5071285;28;20060;-74
2022/09/10 00:13:46;;;;;;;10.13;8.10;;;;;;;20.29;100.00;93096.13;5070483;28;20049;-74
2022/09/10 00:16:15;;;;;;;11.85;8.00;;;;;;;20.35;100.00;93104.69;5070432;28;20106;-74
2022/09/10 00:18:43;;;;;;;12.32;8.35;;;;;;;20.34;100.00;93103.16;5070410;28;20076;-74
2022/09/10 00:21:14;;;;;;;11.77;8.13;;;;;;;20.36;100.00;93101.03;5070393;28;20504;-75
2022/09/10 00:23:44;;;;;;;11.32;7.82;;;;;;;20.36;100.00;93095.81;5070376;28;20048;-74
2022/09/10 00:26:15;;;;;;;11.18;7.68;;;;;;;20.32;100.00;93096.66;5068062;28;20093;-74
2022/09/10 00:28:43;;;;;;;11.52;7.85;;;;;;;20.42;100.00;93101.78;5076370;28;20466;-74
2022/09/10 00:31:12;;;;;;;11.68;8.50;;;;;;;20.42;100.00;93107.75;5067861;28;20094;-74
2022/09/10 00:33:39;;;;;;;10.60;7.63;;;;;;;20.44;100.00;93107.50;5070459;28;20131;-75
2022/09/10 00:36:15;;;;;;;8.93;7.15;;;;;;;20.47;100.00;93111.41;5070250;28;20044;-74
2022/09/10 00:38:42;;;;;;;9.32;6.97;;;;;;;20.38;100.00;93103.38;5070018;28;20053;-74
2022/09/10 00:41:09;;;;;;;8.80;7.35;;;;;;;20.48;100.00;93110.34;5069855;28;20102;-74
2022/09/10 00:43:48;;;;;;;8.98;7.30;;;;;;;20.52;100.00;93116.56;5070224;28;20052;-74
2022/09/10 00:46:26;;;;;;;9.20;7.60;;;;;;;20.54;100.00;93114.47;5070236;28;20443;-74
2022/09/10 00:48:57;;;;;;;10.15;8.15;;;;;;;20.52;100.00;93106.94;5070049;28;20044;-74
2022/09/10 00:51:28;;;;;;;11.35;7.60;;;;;;;20.55;100.00;93106.34;5070011;28;20055;-74
2022/09/10 00:53:55;;;;;;;11.70;7.93;;;;;;;20.57;100.00;93103.47;5069801;28;21136;-74
2022/09/10 00:56:23;;;;;;;9.27;7.55;;;;;;;20.52;100.00;93087.88;5069822;28;20566;-74
2022/09/10 00:58:51;;;;;;;13.45;7.57;;;;;;;20.58;100.00;93093.81;5069570;28;20045;-74
2022/09/10 01:01:19;;;;;;;9.73;7.22;;;;;;;20.60;100.00;93087.25;5067577;28;20052;-74
2022/09/10 01:03:46;;;;;;;8.52;7.20;;;;;;;20.60;100.00;93097.69;5068095;28;20044;-74
2022/09/10 01:06:13;;;;;;;14.40;7.38;;;;;;;20.61;100.00;93086.22;5069142;28;20044;-74
2022/09/10 01:08:41;;;;;;;13.27;8.65;;;;;;;20.60;100.00;93081.28;5069769;28;20045;-73
2022/09/10 01:11:28;;;;;;;11.40;7.45;;;;;;;20.52;100.00;93074.81;5069291;28;20079;-74
2022/09/10 01:14:13;;;;;;;11.80;8.15;;;;;;;20.60;100.00;93079.44;5069910;28;20439;-74
2022/09/10 01:16:47;;;;;;;13.20;8.18;;;;;;;20.63;100.00;93071.06;5069552;28;20040;-74
2022/09/10 01:19:32;;;;;;;11.68;8.13;;;;;;;20.61;100.00;93069.78;5069344;28;20094;-73
2022/09/10 01:22:09;;;;;;;12.65;8.07;;;;;;;20.64;100.00;93075.22;5069420;28;20052;-73
2022/09/10 01:24:50;;;;;;;15.45;8.45;;;;;;;20.62;100.00;93061.69;5069082;28;20048;-74
2022/09/10 01:27:41;;;;;;;14.65;8.30;;;;;;;20.64;100.00;93050.97;5069436;28;20125;-73
2022/09/10 01:30:13;;;;;;;17.25;8.63;;;;;;;20.60;100.00;93055.19;5086854;28;20487;-73
2022/09/10 01:33:03;;;;;;;20.42;8.43;;;;;;;20.57;100.00;93051.28;5089513;28;20036;-74
2022/09/10 01:35:35;;;;;;;15.15;7.90;;;;;;;20.59;100.00;93046.56;5088992;28;20131;-74
2022/09/10 01:38:06;;;;;;;13.13;8.45;;;;;;;20.50;100.00;93037.81;5089580;28;20539;-73
2022/09/10 01:40:34;;;;;;;10.90;7.85;;;;;;;20.59;100.00;93054.41;5089475;28;20047;-74
2022/09/10 01:43:04;;;;;;;14.90;8.32;;;;;;;20.63;100.00;93063.25;5089556;28;20450;-73
2022/09/10 01:45:37;;;;;;;12.32;8.02;;;;;;;20.60;100.00;93061.16;5089263;28;20040;-73
2022/09/10 01:48:18;;;;;;;12.07;8.50;;;;;;;20.63;100.00;93067.66;5089089;28;20101;-73
2022/09/10 01:50:52;;;;;;;15.43;8.10;;;;;;;20.62;100.00;93069.50;5088891;28;20044;-74
2022/09/10 01:53:48;;;;;;;14.48;8.85;;;;;;;20.62;100.00;93059.06;5089313;28;20044;-74
2022/09/10 01:56:26;;;;;;;17.27;8.00;;;;;;;20.62;100.00;93068.72;5075288;28;20040;-73
2022/09/10 01:58:59;;;;;;;15.13;8.20;;;;;;;20.59;100.00;93067.44;5088922;28;20044;-73
2022/09/10 02:01:33;;;;;;;12.95;7.95;;;;;;;20.63;100.00;93073.69;5088823;28;20094;-75
2022/09/10 02:04:06;;;;;;;14.15;8.00;;;;;;;20.67;100.00;93079.13;5089008;28;20040;-75
2022/09/10 02:06:38;;;;;;;17.63;8.77;;;;;;;20.68;100.00;93072.84;5089129;28;20051;-75
2022/09/10 02:09:06;;;;;;;13.05;8.10;;;;;;;20.68;100.00;93078.06;5089034;28;20044;-75
2022/09/10 02:11:46;;;;;;;12.18;8.55;;;;;;;20.70;100.00;93073.34;5089159;28;20109;-74
2022/09/10 02:14:14;;;;;;;12.35;8.15;;;;;;;20.70;100.00;93075.97;5088976;28;20068;-74
2022/09/10 02:16:45;;;;;;;11.48;7.82;;;;;;;20.68;100.00;93081.47;5089072;28;20457;-74
2022/09/10 02:19:13;;;;;;;12.40;8.52;;;;;;;20.70;100.00;93081.19;5088683;28;20051;-74
2022/09/10 02:21:40;;;;;;;15.50;8.43;;;;;;;20.69;100.00;93077.03;5088969;28;20385;-74
2022/09/10 02:24:09;;;;;;;16.10;8.52;;;;;;;20.62;100.00;93068.72;5088191;28;20048;-74
2022/09/10 02:26:38;;;;;;;17.98;8.52;;;;;;;20.70;100.00;93076.72;5088635;28;20086;-74
2022/09/10 02:29:06;;;;;;;18.45;9.48;;;;;;;20.68;100.00;93071.03;5088683;28;20040;-74
2022/09/10 02:31:34;;;;;;;14.07;8.35;;;;;;;20.66;100.00;93065.31;5088722;28;20040;-73
2022/09/10 02:34:02;;;;;;;12.68;8.40;;;;;;;20.67;100.00;93079.91;5089002;28;20073;-73
2022/09/10 02:36:30;;;;;;;13.90;8.13;;;;;;;20.67;100.00;93082.53;5065873;28;20127;-74
2022/09/10 02:38:57;;;;;;;15.15;8.02;;;;;;;20.67;100.00;93079.13;5068674;28;20096;-74
2022/09/10 02:41:24;;;;;;;15.77;9.40;;;;;;;20.67;100.00;93085.13;5068301;28;20053;-74
2022/09/10 02:43:51;;;;;;;16.88;9.20;;;;;;;20.69;100.00;93082.25;5068415;28;20681;-74
2022/09/10 02:46:18;;;;;;;14.68;9.68;;;;;;;20.69;100.00;93083.00;5068430;28;20052;-74
2022/09/10 02:48:46;;;;;;;14.98;9.45;;;;;;;20.69;100.00;93096.06;5068240;28;20041;-74
2022/09/10 02:51:13;;;;;;;19.17;9.30;;;;;;;20.70;100.00;93089.78;5068430;28;20520;-74
2022/09/10 02:53:39;;;;;;;17.90;9.70;;;;;;;20.72;100.00;93091.31;5068230;28;20488;-74
2022/09/10 02:56:07;;;;;;;14.70;8.73;;;;;;;20.70;100.00;93084.56;5068228;28;20395;-74
2022/09/10 02:58:34;;;;;;;16.10;10.02;;;;;;;20.70;100.00;93087.16;5068192;28;20178;-74
2022/09/10 03:01:13;;;;;;;17.25;9.48;;;;;;;20.66;100.00;93086.19;5068445;28;20094;-75
2022/09/10 03:03:41;;;;;;;16.67;9.35;;;;;;;20.58;100.00;93072.94;5071148;28;20121;-74
2022/09/10 03:06:09;;;;;;;19.98;10.25;;;;;;;20.64;100.00;93082.28;5071926;28;20117;-74
2022/09/10 03:08:36;;;;;;;16.25;9.88;;;;;;;20.60;100.00;93082.03;5072198;28;20045;-75
2022/09/10 03:11:03;;;;;;;19.38;10.32;;;;;;;20.49;100.00;93076.16;5072220;28;20052;-75
2022/09/10 03:13:30;;;;;;;17.15;10.20;;;;;;;20.46;100.00;93081.91;5072443;28;20048;-74
2022/09/10 03:15:58;;;;;;;16.48;10.23;;;;;;;20.49;100.00;93065.72;5072203;28;20672;-75
2022/09/10 03:18:26;;;;;;;19.33;10.15;;;;;;;20.41;100.00;93051.44;5072145;28;20132;-75
2022/09/10 03:20:53;;;;;;;16.98;9.98;;;;;;;20.55;100.00;93069.06;5072040;28;20091;-74
2022/09/10 03:23:21;;;;;;;18.58;11.27;;;;;;;20.56;100.00;93060.94;5072058;28;20048;-74
2022/09/10 03:25:47;;;;;;;15.30;10.10;;;;;;;20.55;100.00;93058.63;5072137;28;20056;-74
2022/09/10 03:28:15;;;;;;;15.68;9.85;;;;;;;20.52;100.00;93048.72;5074314;28;20044;-75
2022/09/10 03:30:41;;;;;;;22.10;11.00;;;;;;;20.54;100.00;93047.41;5083633;28;20048;-74
2022/09/10 03:33:10;;;;;;;15.68;9.65;;;;;;;20.49;100.00;93034.41;5071871;28;20122;-74
2022/09/10 03:35:37;;;;;;;13.82;10.13;;;;;;;20.46;100.00;93042.00;5072293;28;20090;-74
2022/09/10 03:38:04;;;;;;;18.67;10.70;;;;;;;20.45;100.00;93030.03;5072120;28;20049;-74
2022/09/10 03:40:33;;;;;;;14.85;9.35;;;;;;;20.35;100.00;93029.06;5072152;28;20060;-74
2022/09/10 03:43:00;;;;;;;21.83;9.95;;;;;;;20.32;100.00;93013.19;5072106;28;20127;-74
2022/09/10 03:45:27;;;;;;;18.30;10.60;;;;;;;20.22;100.00;93017.44;5075107;28;20159;-74
2022/09/10 03:47:54;;;;;;;18.15;10.45;;;;;;;20.09;100.00;93031.88;5085640;28;20048;-74
2022/09/10 03:50:20;;;;;;;16.55;10.20;;;;;;;20.18;100.00;93031.31;5073621;28;20102;-74
2022/09/10 03:52:47;;;;;;;13.35;9.18;;;;;;;20.22;100.00;93027.09;5086497;28;20098;-74
2022/09/10 03:55:14;;;;;;;16.77;9.70;;;;;;;20.26;100.00;93021.06;5072464;28;20460;-74
2022/09/10 03:57:42;;;;;;;14.95;9.18;;;;;;;20.29;100.00;93033.53;5091300;28;20545;-74
2022/09/10 04:00:11;;;;;;;18.73;10.68;;;;;;;20.25;100.00;93039.56;5091312;28;20443;-74
2022/09/10 04:02:40;;;;;;;15.07;9.93;;;;;;;20.29;100.00;93062.22;5085082;28;20044;-74
2022/09/10 04:05:08;;;;;;;16.17;10.07;;;;;;;20.32;100.00;93068.72;5072642;28;20083;-75
2022/09/10 04:07:35;;;;;;;17.02;9.57;;;;;;;20.32;100.00;93070.56;5089160;28;20875;-74
2022/09/10 04:10:02;;;;;;;17.58;9.57;;;;;;;20.32;100.00;93070.56;5071272;28;20047;-74
2022/09/10 04:12:29;;;;;;;17.95;9.82;;;;;;;20.33;100.00;93083.34;5085450;28;20052;-74
2022/09/10 04:14:57;;;;;;;16.90;10.07;;;;;;;20.35;100.00;93081.22;5070828;28;20090;-74
2022/09/10 04:17:24;;;;;;;17.60;10.40;;;;;;;20.36;100.00;93072.34;5090249;28;20048;-74
2022/09/10 04:19:51;;;;;;;17.85;10.23;;;;;;;20.36;100.00;93067.13;5071187;28;20565;-74
2022/09/10 04:22:18;;;;;;;15.23;9.70;;;;;;;20.37;100.00;93065.31;5078646;28;20117;-74
2022/09/10 04:24:44;;;;;;;14.95;8.98;;;;;;;20.37;100.00;93068.69;5070639;28;20094;-74
2022/09/10 04:27:11;;;;;;;15.27;9.05;;;;;;;20.37;100.00;93063.47;5070982;28;20092;-73
2022/09/10 04:29:38;;;;;;;17.52;9.77;;;;;;;20.35;100.00;93064.78;5069829;28;20095;-74
2022/09/10 04:32:06;;;;;;;17.70;10.18;;;;;;;20.34;100.00;93060.63;5070571;28;20565;-74
2022/09/10 04:34:33;;;;;;;15.27;8.95;;;;;;;20.35;100.00;93054.34;5071165;28;20044;-73
2022/09/10 04:37:00;;;;;;;18.60;9.60;;;;;;;20.34;100.00;93050.19;5070824;28;20093;-75
2022/09/10 04:39:26;;;;;;;18.85;9.23;;;;;;;20.35;100.00;93044.72;5071940;28;20049;-75
2022/09/10 04:41:53;;;;;;;15.18;9.15;;;;;;;20.38;100.00;93043.38;5070652;28;20545;-74
2022/09/10 04:44:20;;;;;;;17.80;9.40;;;;;;;20.34;100.00;93058.03;5070585;28;20045;-75
2022/09/10 04:46:47;;;;;;;17.60;10.13;;;;;;;20.42;100.00;93049.63;5070754;28;20060;-75
2022/09/10 04:49:15;;;;;;;16.17;9.27;;;;;;;20.44;100.00;93050.09;5070828;28;20415;-75
2022/09/10 04:51:42;;;;;;;16.77;9.95;;;;;;;20.39;100.00;93032.69;5070525;28;20102;-75
2022/09/10 04:54:09;;;;;;;19.40;9.57;;;;;;;20.43;100.00;93046.72;5070566;28;20048;-74
2022/09/10 04:56:36;;;;;;;14.73;9.18;;;;;;;20.48;100.00;93053.72;5070449;28;20496;-74
2022/09/10 04:59:02;;;;;;;15.15;9.73;;;;;;;20.50;100.00;93050.84;5087265;28;20131;-74
2022/09/10 05:01:30;;;;;;;18.30;9.05;;;;;;;20.50;100.00;93046.41;5089544;28;20048;-74
2022/09/10 05:03:56;;;;;;;18.63;9.77;;;;;;;20.54;100.00;93050.00;5070746;28;20040;-74
2022/09/10 05:06:25;;;;;;;16.85;8.88;;;;;;;20.58;100.00;93052.84;5072338;28;20044;-74
2022/09/10 05:08:52;;;;;;;15.38;9.00;;;;;;;20.64;100.00;93064.78;5087606;28;20044;-74
2022/09/10 05:11:19;;;;;;;20.33;10.07;;;;;;;20.67;100.00;93072.06;5088662;28;20101;-74
2022/09/10 05:13:46;;;;;;;15.02;9.30;;;;;;;20.69;100.00;93069.19;5089709;28;20055;-75
2022/09/10 05:16:13;;;;;;;13.27;8.80;;;;;;;20.73;100.00;93070.19;5079238;28;20098;-75
2022/09/10 05:18:39;;;;;;;13.60;9.02;;;;;;;20.78;100.00;93077.19;5069875;28;20571;-75
2022/09/10 05:21:06;;;;;;;14.02;9.82;;;;;;;20.83;100.00;93075.31;5069687;28;20085;-74
2022/09/10 05:23:34;;;;;;;15.35;9.40;;;;;;;20.83;100.00;93072.69;5080812;28;20077;-74
2022/09/10 05:26:02;;;;;;;14.93;9.45;;;;;;;20.89;100.00;93073.47;5088470;28;20048;-74
2022/09/10 05:28:28;;;;;;;19.27;10.00;;;;;;;20.95;100.00;93064.50;5073760;28;20051;-74
2022/09/10 05:30:55;;;;;;;17.63;9.65;;;;;;;20.98;100.00;93071.00;5079231;28;20040;-74
2022/09/10 05:33:22;;;;;;;13.45;9.85;;;;;;;21.04;100.00;93072.50;5069854;28;20078;-74
2022/09/10 05:35:50;;;;;;;15.43;9.15;;;;;;;21.08;100.00;93063.06;5069708;28;20045;-74
2022/09/10 05:38:17;;;;;;;18.30;9.57;;;;;;;21.08;100.00;93064.91;5069535;28;20522;-75
2022/09/10 05:40:46;;;;;;;12.65;8.73;;;;;;;21.14;100.00;93062.97;5069861;28;20109;-75
2022/09/10 05:43:12;;;;;;;14.02;9.50;;;;;;;21.12;100.00;93062.50;5070054;28;21125;-75
2022/09/10 05:45:39;;;;;;;12.32;8.52;;;;;;;21.14;100.00;93049.94;5069555;28;20048;-75
2022/09/10 05:48:06;;;;;;;16.85;8.05;;;;;;;21.19;100.00;93047.25;5069782;28;20539;-75
2022/09/10 05:50:33;;;;;;;14.55;9.20;;;;;;;21.17;100.00;93044.94;5069284;28;20040;-75
2022/09/10 05:53:00;;;;;;;14.93;8.20;;;;;;;21.12;100.00;93015.50;5069425;28;20496;-75
2022/09/10 05:55:29;;;;;;;10.90;7.60;;;;;;;21.39;100.00;93035.00;5069082;28;20742;-75
2022/09/10 05:57:57;;;;;;;10.45;7.20;;;;;;;21.49;100.00;93040.09;5069664;28;20098;-75
2022/09/10 06:00:25;;;;;;;12.68;8.40;;;;;;;21.66;100.00;93036.97;5069059;28;20135;-75
2022/09/10 06:02:51;;;;;;;13.77;8.43;;;;;;;21.81;100.00;93048.31;5069449;28;20453;-75
2022/09/10 06:05:21;;;;;;;12.57;7.38;;;;;;;21.92;100.00;93043.69;5069333;28;20131;-75
2022/09/10 06:07:48;;;;;;;9.55;7.40;;;;;;;22.03;100.00;93042.47;5069186;28;20044;-75
2022/09/10 06:10:15;;;;;;;12.10;8.05;;;;;;;22.18;100.00;93054.56;5069403;28;20049;-75
2022/09/10 06:12:45;;;;;;;13.65;8.63;;;;;;;22.28;100.00;93058.84;5069349;28;20102;-75
2022/09/10 06:15:13;;;;;;;13.93;7.60;;;;;;;22.38;100.00;93060.53;5069516;28;20538;-75
2022/09/10 06:17:40;;;;;;;13.63;8.93;;;;;;;22.48;100.00;93052.50;5069218;28;20424;-75
2022/09/10 06:20:08;;;;;;;15.68;9.05;;;;;;;22.53;99.79;93057.69;5069165;28;20122;-75
2022/09/10 06:22:35;;;;;;;12.70;8.10;;;;;;;22.60;100.00;93067.78;5069253;28;20123;-75
2022/09/10 06:25:02;;;;;;;13.48;8.15;;;;;;;22.66;99.66;93068.44;5069263;28;20044;-75
2022/09/10 06:27:28;;;;;;;20.27;8.63;;;;;;;22.66;99.42;93058.78;5068764;28;20462;-75
2022/09/10 06:29:56;;;;;;;12.75;8.35;;;;;;;22.73;99.67;93057.59;5082874;28;20135;-75
2022/09/10 06:32:24;;;;;;;14.88;8.45;;;;;;;22.82;99.04;93063.75;5068900;28;20135;-75
2022/09/10 06:34:51;;;;;;;13.60;8.02;;;;;;;22.89;99.16;93058.88;5083064;28;20094;-75
2022/09/10 06:37:18;;;;;;;21.77;10.13;;;;;;;22.91;99.42;93053.38;5071352;28;20070;-77
2022/09/10 06:39:45;;;;;;;15.13;10.68;;;;;;;22.85;99.68;93036.19;5073284;28;20044;-75
2022/09/10 06:42:12;;;;;;;14.07;9.43;;;;;;;23.17;98.64;93065.94;5073252;28;20086;-75
2022/09/10 06:44:39;;;;;;;14.38;9.43;;;;;;;23.23;97.06;93070.81;5072900;28;20052;-75
2022/09/10 06:47:06;;;;;;;16.27;8.75;;;;;;;23.29;96.78;93066.22;5072791;28;20041;-75
2022/09/10 06:49:35;;;;;;;13.40;8.30;;;;;;;23.42;96.16;93069.19;5072822;28;20052;-75
2022/09/10 06:52:02;;;;;;;15.18;9.02;;;;;;;23.58;95.44;93077.50;5072572;28;20090;-75
2022/09/10 06:54:29;;;;;;;13.95;8.20;;;;;;;23.59;94.15;93065.94;5072521;28;20557;-75
2022/09/10 06:56:56;;;;;;;14.27;8.98;;;;;;;23.75;93.16;93069.78;5072496;28;20045;-75
2022/09/10 06:59:23;;;;;;;13.38;8.05;;;;;;;23.82;92.92;93077.25;5072607;28;20562;-75
2022/09/10 07:01:50;;;;;;;10.32;7.80;;;;;;;23.85;91.74;93074.03;5072292;28;20086;-75
2022/09/10 07:04:19;;;;;;;10.70;7.32;;;;;;;23.86;91.76;93078.22;5072329;28;20056;-75
2022/09/10 07:06:47;;;;;;;13.95;6.97;;;;;;;23.87;91.54;93076.34;5072414;28;20052;-75
2022/09/10 07:09:14;;;;;;;10.50;7.40;;;;;;;23.89;91.23;93074.97;5072676;28;20490;-75
2022/09/10 07:11:41;;;;;;;10.43;7.00;;;;;;;23.96;91.35;93069.31;5072364;28;20048;-75
2022/09/10 07:14:11;;;;;;;14.70;7.55;;;;;;;24.02;92.04;93065.50;5072316;28;20052;-76
2022/09/10 07:16:40;;;;;;;12.95;7.82;;;;;;;24.10;91.22;93065.88;5072807;28;20060;-76
2022/09/10 07:19:07;;;;;;;12.95;6.95;;;;;;;24.21;90.25;93059.31;5072146;28;20461;-75
2022/09/10 07:21:36;;;;;;;13.43;7.43;;;;;;;24.44;91.42;93071.69;5072558;28;20056;-76
2022/09/10 07:24:05;;;;;;;13.60;7.15;;;;;;;24.58;90.17;93063.72;5072463;28;20059;-76
2022/09/10 07:26:33;;;;;;;13.02;7.88;;;;;;;24.89;88.71;93079.50;5072280;28;20422;-76
2022/09/10 07:29:00;;;;;;;13.40;7.40;;;;;;;25.11;86.11;93082.34;5080544;28;20059;-76
2022/09/10 07:31:28;;;;;;;9.90;6.22;;;;;;;25.32;83.80;93082.59;5077219;28;20859;-76
2022/09/10 07:33:55;;;;;;;9.93;6.47;;;;;;;25.49;83.33;93073.94;5071821;28;20044;-76
2022/09/10 07:36:22;;;;;;;10.88;6.65;;;;;;;25.70;82.55;93083.91;5071853;28;20045;-76
2022/09/10 07:38:53;;;;;;;11.38;6.35;;;;;;;25.97;81.68;93085.47;5071892;28;20535;-75
2022/09/10 07:41:21;;;;;;;10.10;6.65;;;;;;;26.14;79.90;93078.63;5071984;28;20090;-76
2022/09/10 07:43:48;;;;;;;12.65;6.93;;;;;;;26.40;79.81;93093.69;5072023;28;20198;-76
2022/09/10 07:46:19;;;;;;;9.55;6.20;;;;;;;26.62;78.42;93089.28;5075405;28;20476;-76
2022/09/10 07:48:47;;;;;;;10.20;5.95;;;;;;;26.82;76.51;93090.47;5080933;28;20049;-75
2022/09/10 07:51:18;;;;;;;11.68;6.57;;;;;;;27.03;75.78;93089.81;5071332;28;20539;-75
2022/09/10 07:53:45;;;;;;;8.95;5.97;;;;;;;27.18;73.47;93084.00;5071960;28;20044;-76
2022/09/10 07:56:12;;;;;;;10.90;6.80;;;;;;;27.24;73.05;93084.59;5071548;28;21178;-77
2022/09/10 07:58:40;;;;;;;9.38;6.35;;;;;;;27.33;71.86;93098.53;5071871;28;20048;-77
2022/09/10 08:01:10;;;;;;;11.35;6.45;;;;;;;27.40;72.66;93079.53;5071138;28;20432;-77
2022/09/10 08:03:38;;;;;;;9.15;6.40;;;;;;;27.60;71.72;93090.50;5071440;28;20508;-77
2022/09/10 08:06:06;;;;;;;9.13;6.10;;;;;;;27.72;71.36;93080.00;5071180;28;20074;-75
2022/09/10 08:08:36;;;;;;;13.23;6.00;;;;;;;27.83;70.96;93090.97;5071534;28;20044;-75
2022/09/10 08:11:05;;;;;;;12.02;5.82;;;;;;;27.88;68.31;93095.28;5071144;28;20044;-75
2022/09/10 08:13:35;;;;;;;10.52;6.13;;;;;;;27.93;69.84;93094.28;5071299;28;20044;-75
2022/09/10 08:16:06;;;;;;;11.68;5.90;;;;;;;27.92;69.66;93100.66;5071118;28;20048;-75
2022/09/10 08:18:34;;;;;;;10.18;5.80;;;;;;;27.87;69.59;93093.72;5068899;28;20113;-75
2022/09/10 08:21:01;;;;;;;8.15;6.07;;;;;;;27.85;69.05;93098.53;5070745;28;20056;-74
2022/09/10 08:23:28;;;;;;;13.38;5.90;;;;;;;27.71;68.33;93081.09;5070947;28;20056;-75
2022/09/10 08:25:55;;;;;;;9.20;6.18;;;;;;;27.68;69.23;93083.63;5071248;28;20048;-75
2022/09/10 08:28:22;;;;;;;8.73;5.47;;;;;;;27.71;69.26;93083.75;5074002;28;20048;-74
2022/09/10 08:30:56;;;;;;;9.38;6.25;;;;;;;27.78;69.41;93093.78;5081193;28;20079;-75
2022/09/10 08:33:26;;;;;;;11.52;6.60;;;;;;;27.74;69.63;93098.94;5064669;28;20050;-74
2022/09/10 08:35:55;;;;;;;13.30;6.50;;;;;;;27.67;70.33;93098.66;5079577;28;20063;-74
2022/09/10 08:38:23;;;;;;;12.77;6.70;;;;;;;27.64;69.85;93099.31;5069137;28;20126;-74
2022/09/10 08:40:50;;;;;;;11.40;6.40;;;;;;;27.62;70.06;93101.47;5064612;28;20063;-74
2022/09/10 08:43:25;;;;;;;10.88;6.38;;;;;;;27.53;69.97;93098.13;5070530;28;20052;-74
2022/09/10 08:45:53;;;;;;;14.23;6.70;;;;;;;27.47;70.12;93092.22;5061545;28;20095;-74
2022/09/10 08:48:23;;;;;;;11.07;5.97;;;;;;;27.39;70.19;93104.38;5060240;28;20054;-74
2022/09/10 08:50:56;;;;;;;13.30;6.47;;;;;;;27.33;70.81;93097.75;5062338;28;20549;-73
2022/09/10 08:53:27;;;;;;;13.88;6.38;;;;;;;27.27;70.76;93094.53;5064682;28;20049;-74
2022/09/10 08:56:02;;;;;;;8.95;6.13;;;;;;;27.19;71.45;93098.75;5070076;28;20183;-74
2022/09/10 08:58:39;;;;;;;11.43;6.53;;;;;;;27.13;72.26;93094.75;5070213;28;20055;-74
2022/09/10 09:01:10;;;;;;;11.70;6.82;;;;;;;27.05;72.68;93093.69;5068929;28;20044;-74
2022/09/10 09:03:42;;;;;;;13.38;6.75;;;;;;;26.90;72.70;93083.63;5068932;28;20059;-74
2022/09/10 09:06:23;;;;;;;12.05;6.78;;;;;;;26.89;72.83;93095.28;5060692;28;20094;-74
2022/09/10 09:08:51;;;;;;;13.63;6.28;;;;;;;26.80;73.15;93092.66;5069871;28;20072;-74
2022/09/10 09:11:26;;;;;;;11.52;6.25;;;;;;;26.71;73.67;93084.78;5064526;28;20048;-74
2022/09/10 09:14:03;;;;;;;;;;;;;;;26.71;74.43;93078.72;5065838;28;20052;-74
2022/09/10 09:16:40;;;;;;;14.55;6.78;;;;;;;26.52;74.66;93064.06;5069597;28;19924;-75
2022/09/10 09:19:21;;;;;;;17.40;7.47;;;;;;;26.54;75.47;93070.56;5069801;28;20135;-74
2022/09/10 09:21:52;;;;;;;14.55;6.70;;;;;;;26.54;74.49;93059.25;5060767;28;20103;-74
2022/09/10 09:24:26;;;;;;;17.05;7.38;;;;;;;26.54;74.97;93054.00;5060047;28;20105;-74
2022/09/10 09:26:59;;;;;;;11.73;6.65;;;;;;;26.56;75.31;93046.53;5067137;28;20082;-74
2022/09/10 09:29:32;;;;;;;14.80;7.82;;;;;;;26.61;75.74;93048.25;5079203;28;20044;-74
2022/09/10 09:32:03;;;;;;;12.55;7.20;;;;;;;26.66;75.52;93042.81;5070531;28;20048;-74
2022/09/10 09:34:35;;;;;;;15.80;7.50;;;;;;;26.66;74.75;93032.25;5069563;28;20098;-75
2022/09/10 09:37:11;;;;;;;14.00;7.80;;;;;;;26.70;74.67;93020.00;5069379;28;20500;-75
2022/09/10 09:39:45;;;;;;;12.50;6.90;;;;;;;26.75;74.16;93021.69;5069530;28;20575;-75
2022/09/10 09:42:19;;;;;;;14.88;6.38;;;;;;;26.78;74.61;93018.41;5069212;28;20557;-74
2022/09/10 09:44:49;;;;;;;11.38;6.85;;;;;;;26.90;75.83;93013.25;5069557;28;20136;-74
2022/09/10 09:47:16;;;;;;;15.15;7.88;;;;;;;27.10;74.87;93008.38;5069194;28;20844;-74
2022/09/10 09:49:43;;;;;;;12.88;7.47;;;;;;;27.16;74.59;92987.88;5069270;28;20411;-74
2022/09/10 09:52:21;;;;;;;14.45;7.10;;;;;;;27.35;73.56;93006.66;5068791;28;20554;-74
2022/09/10 09:54:52;;;;;;;13.88;6.93;;;;;;;27.35;70.73;93005.88;5069425;28;20253;-74
2022/09/10 09:57:20;;;;;;;13.43;7.35;;;;;;;27.45;71.21;93002.88;5068997;28;20052;-74
2022/09/10 09:59:48;;;;;;;17.00;8.20;;;;;;;27.36;71.78;92983.72;5069613;28;20049;-75
2022/09/10 10:02:19;;;;;;;14.35;7.57;;;;;;;27.53;72.35;92982.03;5069140;28;20496;-74
2022/09/10 10:05:05;;;;;;;13.45;8.00;;;;;;;27.63;72.30;92980.91;5069423;28;20045;-75
2022/09/10 10:07:36;;;;;;;12.20;6.65;;;;;;;27.69;68.61;92984.88;5069040;28;20041;-74
2022/09/10 10:10:06;;;;;;;12.65;7.30;;;;;;;27.77;68.39;92970.84;5068923;28;20059;-75
2022/09/10 10:12:33;;;;;;;12.98;8.00;;;;;;;27.88;67.43;92961.44;5069028;28;20040;-75
2022/09/10 10:15:01;;;;;;;14.15;6.78;;;;;;;28.18;67.58;92972.97;5067356;28;20052;-75
2022/09/10 10:17:37;;;;;;;14.80;7.47;;;;;;;28.32;66.83;92965.50;5067907;28;20454;-75
2022/09/10 10:20:11;;;;;;;12.65;6.50;;;;;;;28.58;65.08;92972.38;5067321;28;20052;-75
2022/09/10 10:22:42;;;;;;;15.05;6.32;;;;;;;28.68;64.64;92944.75;5070496;28;20388;-75
2022/09/10 10:25:37;;;;;;;17.38;7.28;;;;;;;28.90;62.46;92958.63;5076813;28;20048;-74
2022/09/10 10:28:12;;;;;;;13.70;5.90;;;;;;;29.16;62.15;92949.56;5062014;28;20515;-75
2022/09/10 10:30:40;;;;;;;13.90;6.53;;;;;;;29.44;61.34;92962.81;5080993;28;20443;-75
2022/09/10 10:33:17;;;;;;;15.05;6.10;;;;;;;29.43;59.17;92961.28;5068749;28;20049;-75
2022/09/10 10:35:49;;;;;;;13.25;5.55;;;;;;;29.59;58.97;92963.25;5068749;28;20534;-74
2022/09/10 10:38:38;;;;;;;9.77;5.82;;;;;;;29.72;59.74;92977.97;5061082;28;20106;-75
2022/09/10 10:41:34;;;;;;;13.45;5.53;;;;;;;29.86;57.22;92972.31;5059003;28;20469;-74
2022/09/10 10:44:17;;;;;;;10.40;5.35;;;;;;;29.89;57.69;92965.56;5068849;28;20047;-75
2022/09/10 10:46:53;;;;;;;9.38;5.60;;;;;;;29.96;58.01;92952.53;5068557;28;20048;-74
2022/09/10 10:49:30;;;;;;;12.65;7.75;;;;;;;29.96;57.97;92957.81;5069025;28;20053;-75
2022/09/10 10:52:08;;;;;;;13.88;6.10;;;;;;;29.92;57.78;92954.31;5082838;28;20041;-75
2022/09/10 10:55:01;;;;;;;10.82;5.72;;;;;;;30.02;57.25;92965.53;5078001;28;20549;-74
2022/09/10 10:57:40;;;;;;;15.60;6.43;;;;;;;30.07;57.19;92954.66;5084154;28;20646;-74
2022/09/10 11:00:13;;;;;;;17.95;6.30;;;;;;;30.10;57.54;92957.44;5089460;28;20458;-75
2022/09/10 11:02:53;;;;;;;12.02;6.68;;;;;;;30.02;57.75;92957.59;5089506;28;20108;-76
2022/09/10 11:05:37;;;;;;;17.15;6.10;;;;;;;30.04;57.78;92955.34;5089159;28;20380;-76
2022/09/10 11:08:08;;;;;;;11.45;5.85;;;;;;;30.20;57.83;92963.34;5089630;28;20131;-76
2022/09/10 11:10:39;;;;;;;13.23;5.70;;;;;;;30.03;57.75;92962.53;5088812;28;20052;-76
2022/09/10 11:13:25;;;;;;;7.68;2.75;;;;;;;28.58;59.59;92958.38;5087910;28;20377;-78
2022/09/10 11:16:00;;;;;;;9.45;3.28;;;;;;;26.88;66.79;92949.53;5087973;28;20074;-76
2022/09/10 11:18:32;;;;;;;5.65;2.85;;;;;;;27.54;64.12;92955.31;5080717;28;20052;-76
2022/09/10 11:21:05;;;;;;;7.15;3.38;;;;;;;27.28;65.74;92953.66;5074517;28;20048;-76
2022/09/10 11:23:39;;;;;;;12.48;3.35;;;;;;;27.54;65.75;92951.94;5070653;28;20516;-76
2022/09/10 11:26:13;;;;;;;10.20;3.45;;;;;;;27.60;64.27;92940.88;5072343;28;20101;-76
2022/09/10 11:28:47;;;;;;;7.50;3.67;;;;;;;26.91;65.91;92954.19;5078025;28;20154;-75
2022/09/10 11:31:23;;;;;;;6.93;3.05;;;;;;;26.01;69.65;92940.91;5079472;28;20121;-75
2022/09/10 11:33:59;;;;;;;7.75;3.60;;;;;;;25.66;72.79;92938.31;5058564;28;20078;-76
2022/09/10 11:36:32;;;;;;;8.35;3.85;;;;;;;25.95;74.13;92942.91;5072034;28;20083;-75